createdAt,value
2023-02-12T00:04:45.220Z,4.50
2023-02-12T00:09:47.061Z,4.50
2023-02-12T00:14:49.017Z,4.50
2023-02-12T00:19:51.304Z,4.50
2023-02-12T00:24:53.135Z,4.50
2023-02-12T00:29:55.168Z,4.60
2023-02-12T00:34:57.007Z,4.60
2023-02-12T00:39:58.851Z,4.80
2023-02-12T00:45:00.708Z,5.00
2023-02-12T00:50:02.582Z,5.20
2023-02-12T00:55:05.769Z,5.40
2023-02-12T01:00:08.316Z,5.60
2023-02-12T01:05:10.434Z,5.70
2023-02-12T01:10:12.377Z,5.80
2023-02-12T01:15:15.291Z,5.80
2023-02-12T01:20:19.401Z,5.80
2023-02-12T01:25:21.380Z,5.90
2023-02-12T01:30:24.322Z,5.90
2023-02-12T01:35:26.206Z,5.90
2023-02-12T01:40:28.123Z,5.90
2023-02-12T01:45:50.006Z,5.90
2023-02-12T01:50:53.416Z,5.90
2023-02-12T01:55:58.483Z,5.90
2023-02-12T02:01:01.542Z,5.90
2023-02-12T02:06:18.827Z,5.90
2023-02-12T02:11:39.173Z,5.90
2023-02-12T02:16:44.973Z,5.90
2023-02-12T02:22:06.183Z,5.80
2023-02-12T02:27:16.900Z,5.70
2023-02-12T02:32:23.971Z,5.70
2023-02-12T02:37:37.285Z,5.60
2023-02-12T02:42:54.404Z,5.60
2023-02-12T02:48:02.298Z,5.60
2023-02-12T02:53:28.743Z,5.50
2023-02-12T02:58:39.744Z,5.50
2023-02-12T03:03:49.195Z,5.50
2023-02-12T03:08:55.662Z,5.50
2023-02-12T03:14:08.305Z,5.40
2023-02-12T03:19:23.133Z,5.40
2023-02-12T03:24:44.722Z,5.30
2023-02-12T03:29:46.970Z,5.20
2023-02-12T03:34:58.823Z,5.20
2023-02-12T03:40:18.234Z,5.20
2023-02-12T03:45:33.856Z,5.10
2023-02-12T03:50:59.874Z,5.20
2023-02-12T03:56:06.083Z,5.20
2023-02-12T04:01:08.670Z,5.30
2023-02-12T04:06:22.252Z,5.30
2023-02-12T04:11:42.823Z,5.40
2023-02-12T04:17:04.797Z,5.40
2023-02-12T04:22:09.791Z,5.40
2023-02-12T04:27:17.397Z,5.40
2023-02-12T04:32:32.476Z,5.40
2023-02-12T04:37:40.603Z,5.40
2023-02-12T04:42:49.220Z,5.40
2023-02-12T04:47:51.088Z,5.40
2023-02-12T04:52:53.080Z,5.40
2023-02-12T04:57:54.908Z,5.40
2023-02-12T05:02:56.832Z,5.40
2023-02-12T05:07:58.677Z,5.40
2023-02-12T05:13:00.542Z,5.40
2023-02-12T05:18:02.962Z,5.40
2023-02-12T05:23:04.879Z,5.40
2023-02-12T05:28:06.748Z,5.30
2023-02-12T05:33:08.656Z,5.30
2023-02-12T05:38:10.534Z,5.30
2023-02-12T05:43:12.444Z,5.20
2023-02-12T05:48:14.525Z,5.20
2023-02-12T05:53:16.378Z,5.20
2023-02-12T05:58:18.210Z,5.20
2023-02-12T06:03:20.124Z,5.20
2023-02-12T06:08:21.971Z,5.20
2023-02-12T06:13:25.248Z,5.20
2023-02-12T06:18:27.568Z,5.10
2023-02-12T06:23:29.664Z,5.10
2023-02-12T06:28:31.582Z,5.10
2023-02-12T06:33:35.634Z,5.00
2023-02-12T06:38:37.599Z,5.00
2023-02-12T06:43:39.520Z,5.00
2023-02-12T06:48:41.560Z,5.00
2023-02-12T06:53:44.283Z,5.00
2023-02-12T06:58:48.005Z,5.00
2023-02-12T07:03:52.300Z,5.00
2023-02-12T07:08:55.140Z,5.00
2023-02-12T07:13:56.970Z,5.00
2023-02-12T07:18:58.788Z,5.10
2023-02-12T07:24:00.598Z,5.10
2023-02-12T07:29:02.380Z,5.20
2023-02-12T07:34:04.401Z,5.30
2023-02-12T07:39:06.249Z,5.40
2023-02-12T07:44:10.798Z,5.50
2023-02-12T07:49:14.385Z,5.60
2023-02-12T07:54:17.027Z,5.70
2023-02-12T07:59:20.555Z,5.80
2023-02-12T08:04:25.407Z,5.90
2023-02-12T08:09:33.046Z,6.10
2023-02-12T08:14:35.093Z,6.30
2023-02-12T08:19:37.099Z,6.50
2023-02-12T08:24:39.118Z,6.70
2023-02-12T08:29:40.922Z,6.80
2023-02-12T08:34:42.699Z,6.90
2023-02-12T08:39:44.667Z,7.00
2023-02-12T08:44:46.521Z,7.10
2023-02-12T08:49:48.383Z,7.20
2023-02-12T08:54:50.177Z,7.20
2023-02-12T08:59:51.975Z,7.30
2023-02-12T09:04:54.009Z,7.50
2023-02-12T09:09:55.825Z,7.70
2023-02-12T09:14:57.667Z,7.80
2023-02-12T09:20:01.438Z,8.00
2023-02-12T09:25:03.543Z,8.40
2023-02-12T09:30:06.443Z,8.80
2023-02-12T09:35:08.619Z,9.40
2023-02-12T09:40:43.086Z,10.10
2023-02-12T09:45:53.613Z,10.40
2023-02-12T09:50:57.480Z,10.60
2023-02-12T09:55:59.570Z,10.50
2023-02-12T10:01:02.512Z,10.60
2023-02-12T10:06:06.760Z,10.30
2023-02-12T10:11:09.566Z,10.20
2023-02-12T10:16:42.175Z,10.10
2023-02-12T10:21:51.414Z,10.20
2023-02-12T10:26:57.150Z,10.70
2023-02-12T10:32:28.498Z,11.20
2023-02-12T10:37:45.393Z,11.70
2023-02-12T10:42:55.063Z,12.10
2023-02-12T10:48:06.964Z,12.40
2023-02-12T10:53:17.717Z,12.70
2023-02-12T10:58:22.839Z,12.70
2023-02-12T11:03:34.364Z,12.80
2023-02-12T11:08:38.813Z,13.10
2023-02-12T11:13:46.007Z,13.30
2023-02-12T11:18:58.472Z,13.00
2023-02-12T11:24:30.786Z,12.90
2023-02-12T11:29:33.740Z,12.80
2023-02-12T11:34:36.576Z,12.70
2023-02-12T11:39:39.181Z,12.60
2023-02-12T11:44:43.948Z,12.80
2023-02-12T11:49:54.804Z,13.10
2023-02-12T11:55:01.174Z,13.10
2023-02-12T12:00:18.197Z,12.90
2023-02-12T12:05:21.586Z,12.50
2023-02-12T12:10:47.927Z,12.20
2023-02-12T12:16:30.042Z,12.40
2023-02-12T12:21:47.235Z,12.20
2023-02-12T12:27:51.188Z,11.70
2023-02-12T12:32:55.109Z,11.40
2023-02-12T12:38:20.109Z,11.40
2023-02-12T12:43:40.342Z,11.40
2023-02-12T12:48:45.030Z,11.20
2023-02-12T12:54:11.404Z,10.90
2023-02-12T12:59:41.588Z,10.90
2023-02-12T13:05:07.354Z,10.70
2023-02-12T13:10:17.786Z,10.60
2023-02-12T13:15:25.813Z,10.40
2023-02-12T13:20:27.792Z,10.50
2023-02-12T13:26:03.557Z,10.80
2023-02-12T13:31:24.878Z,11.10
2023-02-12T13:36:30.855Z,11.40
2023-02-12T13:41:33.206Z,11.50
2023-02-12T13:47:20.092Z,11.30
2023-02-12T13:52:42.824Z,11.00
2023-02-12T13:57:44.725Z,10.70
2023-02-12T14:02:47.873Z,10.50
2023-02-12T14:07:52.579Z,10.30
2023-02-12T14:12:58.238Z,10.20
2023-02-12T14:18:03.092Z,10.10
2023-02-12T14:23:25.472Z,10.00
2023-02-12T14:28:34.305Z,9.90
2023-02-12T14:33:36.208Z,9.80
2023-02-12T14:38:47.481Z,9.80
2023-02-12T14:44:01.531Z,9.70
2023-02-12T14:49:06.045Z,9.70
2023-02-12T14:54:15.439Z,9.60
2023-02-12T14:59:20.100Z,9.40
2023-02-12T15:04:27.974Z,9.20
2023-02-12T15:09:35.815Z,9.10
2023-02-12T15:14:42.123Z,8.90
2023-02-12T15:19:59.819Z,8.70
2023-02-12T15:25:37.425Z,8.60
2023-02-12T15:30:42.294Z,8.40
2023-02-12T15:35:45.146Z,8.30
2023-02-12T15:40:58.118Z,8.20
2023-02-12T15:46:00.668Z,8.10
2023-02-12T15:51:29.047Z,8.00
2023-02-12T15:56:33.775Z,7.90
2023-02-12T16:01:35.713Z,7.90
2023-02-12T16:06:37.767Z,7.70
2023-02-12T16:11:42.919Z,7.70
2023-02-12T16:16:49.368Z,7.60
2023-02-12T16:22:07.179Z,7.50
2023-02-12T16:27:23.347Z,7.50
2023-02-12T16:32:32.829Z,7.30
2023-02-12T16:37:37.667Z,7.30
2023-02-12T16:42:39.457Z,7.30
2023-02-12T16:47:41.866Z,7.20
2023-02-12T16:52:43.746Z,7.10
2023-02-12T16:57:46.182Z,7.10
2023-02-12T17:02:48.232Z,7.10
2023-02-12T17:07:50.402Z,7.10
2023-02-12T17:12:52.795Z,7.10
2023-02-12T17:17:54.721Z,7.00
2023-02-12T17:23:00.069Z,6.80
2023-02-12T17:28:02.009Z,6.70
2023-02-12T17:33:04.307Z,6.60
2023-02-12T17:38:06.728Z,6.60
2023-02-12T17:43:08.592Z,6.50
2023-02-12T17:48:11.767Z,6.50
2023-02-12T17:53:13.611Z,6.40
2023-02-12T17:58:15.576Z,6.40
2023-02-12T18:03:17.439Z,6.40
2023-02-12T18:08:19.309Z,6.40
2023-02-12T18:13:21.401Z,6.40
2023-02-12T18:18:23.432Z,6.40
2023-02-12T18:23:25.383Z,6.30
2023-02-12T18:28:27.574Z,6.20
2023-02-12T18:33:29.641Z,6.20
2023-02-12T18:38:31.749Z,6.20
2023-02-12T18:43:35.997Z,6.10
2023-02-12T18:48:38.199Z,6.20
2023-02-12T18:53:40.101Z,6.20
2023-02-12T18:58:42.179Z,6.10
2023-02-12T19:03:45.317Z,6.00
2023-02-12T19:08:47.220Z,5.90
2023-02-12T19:13:49.579Z,5.90
2023-02-12T19:18:58.505Z,5.90
2023-02-12T19:24:02.365Z,5.90
2023-02-12T19:29:04.790Z,5.80
2023-02-12T19:34:08.980Z,5.80
2023-02-12T19:39:13.750Z,5.70
2023-02-12T19:44:25.899Z,5.70
2023-02-12T19:49:32.160Z,5.70
2023-02-12T19:54:34.270Z,5.70
2023-02-12T19:59:36.675Z,5.70
2023-02-12T20:04:38.772Z,5.70
2023-02-12T20:09:40.881Z,5.70
2023-02-12T20:14:42.790Z,5.70
2023-02-12T20:19:44.713Z,5.70
2023-02-12T20:24:46.702Z,5.70
2023-02-12T20:29:48.652Z,5.70
2023-02-12T20:34:53.547Z,5.60
2023-02-12T20:39:55.415Z,5.50
2023-02-12T20:44:57.646Z,5.50
2023-02-12T20:50:02.192Z,5.50
2023-02-12T20:55:04.603Z,5.50
2023-02-12T21:00:07.129Z,5.40
2023-02-12T21:05:09.679Z,5.40
2023-02-12T21:10:12.703Z,5.40
2023-02-12T21:15:14.780Z,5.40
2023-02-12T21:20:16.764Z,5.40
2023-02-12T21:25:18.807Z,5.40
2023-02-12T21:30:20.773Z,5.50
2023-02-12T21:35:22.621Z,5.50
2023-02-12T21:40:25.373Z,5.40
2023-02-12T21:45:27.346Z,5.40
2023-02-12T21:50:29.433Z,5.30
2023-02-12T21:55:31.395Z,5.30
2023-02-12T22:00:36.478Z,5.20
2023-02-12T22:05:38.456Z,5.10
2023-02-12T22:10:40.384Z,5.10
2023-02-12T22:15:42.361Z,5.10
2023-02-12T22:20:44.210Z,5.00
2023-02-12T22:25:46.096Z,5.00
2023-02-12T22:30:47.919Z,5.00
2023-02-12T22:35:49.823Z,5.00
2023-02-12T22:40:52.882Z,5.00
2023-02-12T22:45:54.765Z,5.00
2023-02-12T22:50:59.051Z,4.90
2023-02-12T22:56:05.403Z,4.90
2023-02-12T23:01:14.669Z,4.90
2023-02-12T23:06:19.347Z,5.00
2023-02-12T23:11:21.672Z,5.00
2023-02-12T23:16:24.120Z,5.00
2023-02-12T23:21:27.067Z,5.00
2023-02-12T23:26:32.027Z,5.00
2023-02-12T23:31:34.026Z,5.00
2023-02-12T23:36:36.069Z,5.00
2023-02-12T23:41:38.061Z,4.90
2023-02-12T23:46:39.904Z,4.90
2023-02-12T23:51:41.987Z,4.90
2023-02-12T23:56:43.864Z,4.90
